createdAt,value
2022-09-26T00:01:30.905Z,47.38
2022-09-26T00:04:03.148Z,47.44
2022-09-26T00:06:30.141Z,47.39
2022-09-26T00:08:58.201Z,47.68
2022-09-26T00:11:28.150Z,47.39
2022-09-26T00:13:59.098Z,47.58
2022-09-26T00:16:26.803Z,47.60
2022-09-26T00:18:56.689Z,47.63
2022-09-26T00:21:24.720Z,47.46
2022-09-26T00:23:51.702Z,47.49
2022-09-26T00:26:21.111Z,47.66
2022-09-26T00:28:48.939Z,47.82
2022-09-26T00:31:23.382Z,47.73
2022-09-26T00:33:50.482Z,47.63
2022-09-26T00:36:17.616Z,47.54
2022-09-26T00:38:45.528Z,47.72
2022-09-26T00:41:13.264Z,47.98
2022-09-26T00:43:44.743Z,47.94
2022-09-26T00:46:36.329Z,47.53
2022-09-26T00:49:13.181Z,47.82
2022-09-26T00:51:43.089Z,47.86
2022-09-26T00:54:13.859Z,47.77
2022-09-26T00:56:43.183Z,47.58
2022-09-26T00:59:19.028Z,47.99
2022-09-26T01:01:45.787Z,47.98
2022-09-26T01:04:13.479Z,47.77
2022-09-26T01:06:41.532Z,47.94
2022-09-26T01:09:09.177Z,47.77
2022-09-26T01:11:37.329Z,47.81
2022-09-26T01:14:05.994Z,48.00
2022-09-26T01:16:34.140Z,47.96
2022-09-26T01:19:04.813Z,48.01
2022-09-26T01:22:06.591Z,47.81
2022-09-26T01:24:52.298Z,47.99
2022-09-26T01:27:37.508Z,47.92
2022-09-26T01:30:23.920Z,48.15
2022-09-26T01:33:07.070Z,47.64
2022-09-26T01:35:59.255Z,48.05
2022-09-26T01:38:44.557Z,47.92
2022-09-26T01:41:20.179Z,48.06
2022-09-26T01:43:55.540Z,47.85
2022-09-26T01:46:26.425Z,47.83
2022-09-26T01:49:02.858Z,48.25
2022-09-26T01:51:49.345Z,48.06
2022-09-26T01:54:22.197Z,48.04
2022-09-26T01:56:52.436Z,48.21
2022-09-26T01:59:26.487Z,48.02
2022-09-26T02:02:00.370Z,48.04
2022-09-26T02:04:37.104Z,48.20
2022-09-26T02:07:16.826Z,48.08
2022-09-26T02:09:51.936Z,48.13
2022-09-26T02:12:26.359Z,48.14
2022-09-26T02:14:57.151Z,48.27
2022-09-26T02:17:33.796Z,48.52
2022-09-26T02:20:10.155Z,48.20
2022-09-26T02:22:37.192Z,48.17
2022-09-26T02:25:04.412Z,48.18
2022-09-26T02:27:31.716Z,48.35
2022-09-26T02:29:58.816Z,48.31
2022-09-26T02:32:29.653Z,48.39
2022-09-26T02:34:57.706Z,48.28
2022-09-26T02:37:26.068Z,48.23
2022-09-26T02:39:53.734Z,48.16
2022-09-26T02:42:24.427Z,48.22
2022-09-26T02:45:21.264Z,48.48
2022-09-26T02:48:12.502Z,48.33
2022-09-26T02:50:48.072Z,48.38
2022-09-26T02:53:33.102Z,48.56
2022-09-26T02:56:52.860Z,48.28
2022-09-26T02:59:28.216Z,48.49
2022-09-26T03:02:03.379Z,48.28
2022-09-26T03:04:36.295Z,48.40
2022-09-26T03:07:07.352Z,48.31
2022-09-26T03:09:35.347Z,48.54
2022-09-26T03:12:06.831Z,48.38
2022-09-26T03:14:36.701Z,48.24
2022-09-26T03:17:04.656Z,48.29
2022-09-26T03:19:43.648Z,48.35
2022-09-26T03:22:10.881Z,48.28
2022-09-26T03:24:37.568Z,48.18
2022-09-26T03:27:05.941Z,48.50
2022-09-26T03:29:32.963Z,48.19
2022-09-26T03:32:01.091Z,48.29
2022-09-26T03:34:28.352Z,48.27
2022-09-26T03:36:54.850Z,48.38
2022-09-26T03:39:21.385Z,48.09
2022-09-26T03:41:48.451Z,48.01
2022-09-26T03:44:15.818Z,47.90
2022-09-26T03:46:43.156Z,48.17
2022-09-26T03:49:12.055Z,48.15
2022-09-26T03:51:39.229Z,48.05
2022-09-26T03:54:06.253Z,47.96
2022-09-26T03:56:33.176Z,48.02
2022-09-26T03:59:00.101Z,47.93
2022-09-26T04:01:27.159Z,47.99
2022-09-26T04:03:53.822Z,47.70
2022-09-26T04:06:21.282Z,47.71
2022-09-26T04:08:50.359Z,47.68
2022-09-26T04:11:20.584Z,47.78
2022-09-26T04:13:52.989Z,47.74
2022-09-26T04:16:21.213Z,47.73
2022-09-26T04:18:48.098Z,47.85
2022-09-26T04:21:15.549Z,47.69
2022-09-26T04:23:43.560Z,47.89
2022-09-26T04:26:23.583Z,47.75
2022-09-26T04:28:55.388Z,47.75
2022-09-26T04:31:24.258Z,47.49
2022-09-26T04:33:51.651Z,47.40
2022-09-26T04:36:18.229Z,47.54
2022-09-26T04:38:45.268Z,47.67
2022-09-26T04:41:14.827Z,47.55
2022-09-26T04:43:42.419Z,47.32
2022-09-26T04:46:18.602Z,47.24
2022-09-26T04:48:49.145Z,47.23
2022-09-26T04:51:18.157Z,47.28
2022-09-26T04:53:46.104Z,47.41
2022-09-26T04:56:15.615Z,47.26
2022-09-26T04:58:43.730Z,47.51
2022-09-26T05:01:13.418Z,47.32
2022-09-26T05:03:41.482Z,47.38
2022-09-26T05:06:09.776Z,47.60
2022-09-26T05:08:37.555Z,47.39
2022-09-26T05:11:04.490Z,47.52
2022-09-26T05:13:31.598Z,47.24
2022-09-26T05:16:02.928Z,47.24
2022-09-26T05:18:30.527Z,47.27
2022-09-26T05:20:57.919Z,47.36
2022-09-26T05:23:45.495Z,47.44
2022-09-26T05:26:38.965Z,47.32
2022-09-26T05:29:13.597Z,47.27
2022-09-26T05:31:40.505Z,47.08
2022-09-26T05:34:13.098Z,46.98
2022-09-26T05:36:42.808Z,47.04
2022-09-26T05:39:29.858Z,47.03
2022-09-26T05:41:58.364Z,46.91
2022-09-26T05:44:25.337Z,47.03
2022-09-26T05:46:52.079Z,47.05
2022-09-26T05:49:18.747Z,47.21
2022-09-26T05:51:45.269Z,47.17
2022-09-26T05:54:11.931Z,47.29
2022-09-26T05:56:38.387Z,47.63
2022-09-26T05:59:06.201Z,47.36
2022-09-26T06:01:34.045Z,47.46
2022-09-26T06:04:00.806Z,47.62
2022-09-26T06:06:27.331Z,47.72
2022-09-26T06:08:53.839Z,47.81
2022-09-26T06:11:24.984Z,47.70
2022-09-26T06:13:51.890Z,47.85
2022-09-26T06:16:20.581Z,47.78
2022-09-26T06:18:49.223Z,47.51
2022-09-26T06:21:17.755Z,47.74
2022-09-26T06:23:46.778Z,47.69
2022-09-26T06:26:20.119Z,47.67
2022-09-26T06:28:47.648Z,47.61
2022-09-26T06:31:16.796Z,47.74
2022-09-26T06:33:43.456Z,47.49
2022-09-26T06:36:11.623Z,47.08
2022-09-26T06:38:39.264Z,46.89
2022-09-26T06:41:07.387Z,46.87
2022-09-26T06:43:34.258Z,46.87
2022-09-26T06:46:01.012Z,46.77
2022-09-26T06:48:28.316Z,46.71
2022-09-26T06:50:58.257Z,46.71
2022-09-26T06:53:25.188Z,46.57
2022-09-26T06:55:51.726Z,46.48
2022-09-26T06:58:18.958Z,46.29
2022-09-26T07:00:45.671Z,46.14
2022-09-26T07:03:13.612Z,45.96
2022-09-26T07:05:40.126Z,46.13
2022-09-26T07:08:07.005Z,46.09
2022-09-26T07:10:37.593Z,46.08
2022-09-26T07:13:06.838Z,45.94
2022-09-26T07:15:35.289Z,46.12
2022-09-26T07:18:04.098Z,46.11
2022-09-26T07:20:33.678Z,46.01
2022-09-26T07:23:02.433Z,46.19
2022-09-26T07:25:31.725Z,46.09
2022-09-26T07:27:58.818Z,46.25
2022-09-26T07:30:25.942Z,46.24
2022-09-26T07:32:52.426Z,46.33
2022-09-26T07:35:18.920Z,46.27
2022-09-26T07:37:46.190Z,46.39
2022-09-26T07:40:12.835Z,46.27
2022-09-26T07:42:39.546Z,46.27
2022-09-26T07:45:24.833Z,46.36
2022-09-26T07:48:12.247Z,46.67
2022-09-26T07:50:38.812Z,46.73
2022-09-26T07:53:05.783Z,46.91
2022-09-26T07:55:32.312Z,46.98
2022-09-26T07:57:59.231Z,47.06
2022-09-26T08:00:26.378Z,47.47
2022-09-26T08:02:52.979Z,47.37
2022-09-26T08:05:20.241Z,47.58
2022-09-26T08:07:48.413Z,47.39
2022-09-26T08:10:21.081Z,47.48
2022-09-26T08:12:48.348Z,47.42
2022-09-26T08:15:15.365Z,47.40
2022-09-26T08:17:43.350Z,47.65
2022-09-26T08:20:10.989Z,47.66
2022-09-26T08:22:37.892Z,47.80
2022-09-26T08:25:06.866Z,47.82
2022-09-26T08:27:34.322Z,47.53
2022-09-26T08:30:02.715Z,47.76
2022-09-26T08:32:31.674Z,47.92
2022-09-26T08:34:58.338Z,47.59
2022-09-26T08:37:29.037Z,47.58
2022-09-26T08:39:55.584Z,47.66
2022-09-26T08:42:51.224Z,47.77
2022-09-26T08:46:07.094Z,47.89
2022-09-26T08:48:45.980Z,47.92
2022-09-26T08:51:19.265Z,47.78
2022-09-26T08:54:00.488Z,47.74
2022-09-26T08:56:35.401Z,47.90
2022-09-26T08:59:04.859Z,48.05
2022-09-26T09:01:35.912Z,47.88
2022-09-26T09:04:10.447Z,47.87
2022-09-26T09:06:38.118Z,47.80
2022-09-26T09:09:05.699Z,47.91
2022-09-26T09:11:58.996Z,48.09
2022-09-26T09:14:44.180Z,48.11
2022-09-26T09:17:26.340Z,47.93
2022-09-26T09:20:16.106Z,48.12
2022-09-26T09:22:52.783Z,48.20
2022-09-26T09:25:39.986Z,48.10
2022-09-26T09:28:21.502Z,48.26
2022-09-26T09:30:56.113Z,48.18
2022-09-26T09:33:27.175Z,47.94
2022-09-26T09:35:59.854Z,48.04
2022-09-26T09:38:30.643Z,48.15
2022-09-26T09:41:04.261Z,48.03
2022-09-26T09:43:48.788Z,48.19
2022-09-26T09:46:31.193Z,48.08
2022-09-26T09:49:10.012Z,48.24
2022-09-26T09:51:52.657Z,48.14
2022-09-26T09:54:30.566Z,48.28
2022-09-26T09:57:38.284Z,48.31
2022-09-26T10:00:22.491Z,48.27
2022-09-26T10:03:04.529Z,48.22
2022-09-26T10:05:46.599Z,48.15
2022-09-26T10:08:18.058Z,48.31
2022-09-26T10:11:11.494Z,48.44
2022-09-26T10:13:42.234Z,48.29
2022-09-26T10:16:11.225Z,48.37
2022-09-26T10:19:03.896Z,48.40
2022-09-26T10:21:34.255Z,48.27
2022-09-26T10:24:04.759Z,48.23
2022-09-26T10:26:36.975Z,48.40
2022-09-26T10:29:23.566Z,48.40
2022-09-26T10:31:56.656Z,48.42
2022-09-26T10:34:28.629Z,48.22
2022-09-26T10:36:56.307Z,48.34
2022-09-26T10:39:43.905Z,48.40
2022-09-26T10:42:16.379Z,48.49
2022-09-26T10:44:43.160Z,48.33
2022-09-26T10:47:17.963Z,48.34
2022-09-26T10:50:25.564Z,48.58
2022-09-26T10:53:01.389Z,48.48
2022-09-26T10:55:31.591Z,48.48
2022-09-26T10:58:07.881Z,48.40
2022-09-26T11:00:42.502Z,48.40
2022-09-26T11:03:13.774Z,48.26
2022-09-26T11:05:59.195Z,48.41
2022-09-26T11:08:30.383Z,48.58
2022-09-26T11:11:00.630Z,48.49
2022-09-26T11:13:32.777Z,48.11
2022-09-26T11:16:07.463Z,48.38
2022-09-26T11:18:52.768Z,48.55
2022-09-26T11:21:33.622Z,48.56
2022-09-26T11:24:26.309Z,48.37
2022-09-26T11:27:11.612Z,48.64
2022-09-26T11:29:55.751Z,48.61
2022-09-26T11:32:30.709Z,48.35
2022-09-26T11:35:06.101Z,48.57
2022-09-26T11:37:51.274Z,48.71
2022-09-26T11:40:55.074Z,48.63
2022-09-26T11:43:57.227Z,48.79
2022-09-26T11:46:47.532Z,48.66
2022-09-26T11:49:38.384Z,48.65
2022-09-26T11:52:32.677Z,48.61
2022-09-26T11:55:24.265Z,48.61
2022-09-26T11:58:03.198Z,48.64
2022-09-26T12:01:24.111Z,48.57
2022-09-26T12:04:12.168Z,48.51
2022-09-26T12:06:54.024Z,48.62
2022-09-26T12:09:47.328Z,48.60
2022-09-26T12:12:34.856Z,48.74
2022-09-26T12:15:21.929Z,48.52
2022-09-26T12:18:13.194Z,48.51
2022-09-26T12:21:17.812Z,48.48
2022-09-26T12:23:57.209Z,48.51
2022-09-26T12:26:29.562Z,48.40
2022-09-26T12:29:10.868Z,48.64
2022-09-26T12:32:00.924Z,48.54
2022-09-26T12:34:49.254Z,48.56
2022-09-26T12:37:15.727Z,48.48
2022-09-26T12:39:55.022Z,48.49
2022-09-26T12:42:34.208Z,48.71
2022-09-26T12:45:09.960Z,48.56
2022-09-26T12:47:52.308Z,48.70
2022-09-26T12:50:40.910Z,48.83
2022-09-26T12:53:24.819Z,48.72
2022-09-26T12:56:02.074Z,48.84
2022-09-26T12:58:44.565Z,48.79
2022-09-26T13:01:16.958Z,48.84
2022-09-26T13:03:56.121Z,48.89
2022-09-26T13:07:18.964Z,48.60
2022-09-26T13:10:11.711Z,48.75
2022-09-26T13:12:59.878Z,48.88
2022-09-26T13:15:38.354Z,48.74
2022-09-26T13:18:11.682Z,48.79
2022-09-26T13:20:43.423Z,48.82
2022-09-26T13:23:41.057Z,48.93
2022-09-26T13:26:16.232Z,48.78
2022-09-26T13:29:12.965Z,48.79
2022-09-26T13:31:41.060Z,48.87
2022-09-26T13:34:19.497Z,48.83
2022-09-26T13:36:47.340Z,48.80
2022-09-26T13:39:48.109Z,48.94
2022-09-26T13:42:17.288Z,48.81
2022-09-26T13:45:04.928Z,48.83
2022-09-26T13:47:41.443Z,48.78
2022-09-26T13:50:30.204Z,49.03
2022-09-26T13:53:06.123Z,48.89
2022-09-26T13:55:33.574Z,48.80
2022-09-26T13:58:21.097Z,48.79
2022-09-26T14:00:54.488Z,48.90
2022-09-26T14:03:21.667Z,48.82
2022-09-26T14:05:52.679Z,48.73
2022-09-26T14:08:44.230Z,48.83
2022-09-26T14:11:20.755Z,48.69
2022-09-26T14:13:48.590Z,48.77
2022-09-26T14:16:36.487Z,48.75
2022-09-26T14:19:09.188Z,48.97
2022-09-26T14:21:41.829Z,48.99
2022-09-26T14:24:20.262Z,48.95
2022-09-26T14:27:04.907Z,49.11
2022-09-26T14:29:38.860Z,49.10
2022-09-26T14:32:38.316Z,49.16
2022-09-26T14:35:18.675Z,49.24
2022-09-26T14:37:51.539Z,48.99
2022-09-26T14:40:33.092Z,49.23
2022-09-26T14:43:03.952Z,49.20
2022-09-26T14:45:36.292Z,49.19
2022-09-26T14:48:11.796Z,49.31
2022-09-26T14:50:50.782Z,49.17
2022-09-26T14:53:25.418Z,49.19
2022-09-26T14:56:08.032Z,49.20
2022-09-26T14:58:37.458Z,49.15
2022-09-26T15:01:17.965Z,49.13
2022-09-26T15:04:12.383Z,49.42
2022-09-26T15:06:43.262Z,49.13
2022-09-26T15:09:13.417Z,49.61
2022-09-26T15:11:48.176Z,49.42
2022-09-26T15:14:39.341Z,49.50
2022-09-26T15:17:08.987Z,49.15
2022-09-26T15:19:41.887Z,49.33
2022-09-26T15:22:15.595Z,49.65
2022-09-26T15:24:42.578Z,49.51
2022-09-26T15:27:16.541Z,49.53
2022-09-26T15:29:49.774Z,49.60
2022-09-26T15:32:26.299Z,49.42
2022-09-26T15:34:54.107Z,49.67
2022-09-26T15:37:31.438Z,49.75
2022-09-26T15:40:17.392Z,49.89
2022-09-26T15:43:01.530Z,49.61
2022-09-26T15:45:35.172Z,49.85
2022-09-26T15:48:05.993Z,50.39
2022-09-26T15:50:47.986Z,50.24
2022-09-26T15:53:58.897Z,50.04
2022-09-26T15:56:31.879Z,50.22
2022-09-26T15:59:13.147Z,50.09
2022-09-26T16:01:45.399Z,50.26
2022-09-26T16:04:18.325Z,50.04
2022-09-26T16:06:56.173Z,50.27
2022-09-26T16:09:40.077Z,50.19
2022-09-26T16:12:15.871Z,50.01
2022-09-26T16:14:47.549Z,50.34
2022-09-26T16:17:28.861Z,50.29
2022-09-26T16:19:58.397Z,50.04
2022-09-26T16:22:36.346Z,50.22
2022-09-26T16:25:52.774Z,50.54
2022-09-26T16:28:41.830Z,50.32
2022-09-26T16:31:25.617Z,50.40
2022-09-26T16:33:54.150Z,50.32
2022-09-26T16:36:35.119Z,50.48
2022-09-26T16:39:05.395Z,50.25
2022-09-26T16:42:00.761Z,50.33
2022-09-26T16:44:35.447Z,50.63
2022-09-26T16:47:05.972Z,50.14
2022-09-26T16:49:47.088Z,50.63
2022-09-26T16:52:28.196Z,50.70
2022-09-26T16:54:56.645Z,50.27
2022-09-26T16:57:35.611Z,50.63
2022-09-26T17:00:24.619Z,50.67
2022-09-26T17:02:51.314Z,50.37
2022-09-26T17:05:21.598Z,50.57
2022-09-26T17:07:49.495Z,50.43
2022-09-26T17:10:18.222Z,50.41
2022-09-26T17:12:50.720Z,50.40
2022-09-26T17:15:23.527Z,50.57
2022-09-26T17:17:53.536Z,50.55
2022-09-26T17:20:20.832Z,50.40
2022-09-26T17:22:47.775Z,50.56
2022-09-26T17:25:14.567Z,50.39
2022-09-26T17:27:42.319Z,50.53
2022-09-26T17:30:18.263Z,50.83
2022-09-26T17:32:51.390Z,50.90
2022-09-26T17:35:25.793Z,50.81
2022-09-26T17:37:52.799Z,50.43
2022-09-26T17:40:24.392Z,50.58
2022-09-26T17:42:52.634Z,50.67
2022-09-26T17:45:20.196Z,50.56
2022-09-26T17:47:46.838Z,50.65
2022-09-26T17:50:22.800Z,50.64
2022-09-26T17:52:49.568Z,50.78
2022-09-26T17:55:16.379Z,50.57
2022-09-26T17:57:43.302Z,50.40
2022-09-26T18:00:15.434Z,50.52
2022-09-26T18:02:50.772Z,50.98
2022-09-26T18:05:21.942Z,50.58
2022-09-26T18:07:52.485Z,50.73
2022-09-26T18:10:23.173Z,50.57
2022-09-26T18:12:59.395Z,50.93
2022-09-26T18:15:27.228Z,50.53
2022-09-26T18:17:54.076Z,50.72
2022-09-26T18:20:23.632Z,50.85
2022-09-26T18:22:51.998Z,50.66
2022-09-26T18:25:22.288Z,50.75
2022-09-26T18:27:52.911Z,50.86
2022-09-26T18:30:21.635Z,50.79
2022-09-26T18:32:52.846Z,50.93
2022-09-26T18:35:24.985Z,50.97
2022-09-26T18:37:55.208Z,50.67
2022-09-26T18:40:27.924Z,50.67
2022-09-26T18:42:55.436Z,50.55
2022-09-26T18:45:32.778Z,50.90
2022-09-26T18:47:59.707Z,50.59
2022-09-26T18:50:34.514Z,50.87
2022-09-26T18:53:01.049Z,50.66
2022-09-26T18:55:46.917Z,50.52
2022-09-26T18:58:24.448Z,50.45
2022-09-26T19:01:07.086Z,50.95
2022-09-26T19:03:36.811Z,50.60
2022-09-26T19:06:37.704Z,50.79
2022-09-26T19:09:07.612Z,50.62
2022-09-26T19:11:35.077Z,50.72
2022-09-26T19:14:17.271Z,50.64
2022-09-26T19:16:45.508Z,50.61
2022-09-26T19:19:12.158Z,50.73
2022-09-26T19:21:48.727Z,50.88
2022-09-26T19:24:21.572Z,50.68
2022-09-26T19:27:10.947Z,50.68
2022-09-26T19:29:49.739Z,51.03
2022-09-26T19:32:23.453Z,50.68
2022-09-26T19:34:56.753Z,50.60
2022-09-26T19:37:23.303Z,50.51
2022-09-26T19:39:50.013Z,50.43
2022-09-26T19:42:17.012Z,50.70
2022-09-26T19:44:43.711Z,50.63
2022-09-26T19:47:18.157Z,50.72
2022-09-26T19:49:47.510Z,50.29
2022-09-26T19:52:19.724Z,50.47
2022-09-26T19:54:46.755Z,50.49
2022-09-26T19:57:21.908Z,50.61
2022-09-26T19:59:49.270Z,50.47
2022-09-26T20:02:21.382Z,50.69
2022-09-26T20:04:48.565Z,50.42
2022-09-26T20:07:19.693Z,50.53
2022-09-26T20:09:47.496Z,50.38
2022-09-26T20:12:14.826Z,50.34
2022-09-26T20:14:41.298Z,50.42
2022-09-26T20:17:26.779Z,50.65
2022-09-26T20:19:58.682Z,50.26
2022-09-26T20:22:26.319Z,50.36
2022-09-26T20:24:57.341Z,50.48
2022-09-26T20:27:27.758Z,50.36
2022-09-26T20:30:13.635Z,50.30
2022-09-26T20:32:43.409Z,50.22
2022-09-26T20:35:16.041Z,50.55
2022-09-26T20:37:43.808Z,50.41
2022-09-26T20:40:14.606Z,50.51
2022-09-26T20:42:44.508Z,50.32
2022-09-26T20:45:21.123Z,50.49
2022-09-26T20:47:47.644Z,50.28
2022-09-26T20:50:20.381Z,50.35
2022-09-26T20:52:47.383Z,50.02
2022-09-26T20:55:19.239Z,50.23
2022-09-26T20:57:46.608Z,50.04
2022-09-26T21:00:19.509Z,50.21
2022-09-26T21:02:51.727Z,50.16
2022-09-26T21:05:27.422Z,50.33
2022-09-26T21:07:57.291Z,50.15
2022-09-26T21:10:28.201Z,50.33
2022-09-26T21:12:55.365Z,50.22
2022-09-26T21:15:23.624Z,50.23
2022-09-26T21:17:52.221Z,50.14
2022-09-26T21:20:27.084Z,50.25
2022-09-26T21:22:54.973Z,49.88
2022-09-26T21:25:24.003Z,50.05
2022-09-26T21:27:53.947Z,50.01
2022-09-26T21:30:20.726Z,49.86
2022-09-26T21:32:58.016Z,49.96
2022-09-26T21:35:29.382Z,49.99
2022-09-26T21:37:57.788Z,49.98
2022-09-26T21:40:27.661Z,49.97
2022-09-26T21:43:05.423Z,49.87
2022-09-26T21:45:31.895Z,49.83
2022-09-26T21:47:58.454Z,49.98
2022-09-26T21:50:29.564Z,49.87
2022-09-26T21:53:07.447Z,49.89
2022-09-26T21:55:37.964Z,49.83
2022-09-26T21:58:13.029Z,49.58
2022-09-26T22:00:40.523Z,49.74
2022-09-26T22:03:07.127Z,49.85
2022-09-26T22:05:34.127Z,49.65
2022-09-26T22:08:01.809Z,49.69
2022-09-26T22:10:29.418Z,49.75
2022-09-26T22:12:56.238Z,49.83
2022-09-26T22:15:22.778Z,49.59
2022-09-26T22:17:49.290Z,49.67
2022-09-26T22:20:16.346Z,49.72
2022-09-26T22:22:42.862Z,49.62
2022-09-26T22:25:10.181Z,49.60
2022-09-26T22:27:37.136Z,49.65
2022-09-26T22:30:04.696Z,49.68
2022-09-26T22:32:31.180Z,49.63
2022-09-26T22:34:57.653Z,49.65
2022-09-26T22:37:24.496Z,49.53
2022-09-26T22:39:51.594Z,49.45
2022-09-26T22:42:18.072Z,49.44
2022-09-26T22:44:44.571Z,49.45
2022-09-26T22:47:11.445Z,49.59
2022-09-26T22:49:37.986Z,49.45
2022-09-26T22:52:04.961Z,49.37
2022-09-26T22:54:31.486Z,49.54
2022-09-26T22:56:58.430Z,49.30
2022-09-26T22:59:24.986Z,49.47
2022-09-26T23:01:52.130Z,49.26
2022-09-26T23:04:18.808Z,49.22
2022-09-26T23:06:45.283Z,49.26
2022-09-26T23:09:12.360Z,49.32
2022-09-26T23:11:39.183Z,49.13
2022-09-26T23:14:05.905Z,49.12
2022-09-26T23:16:32.749Z,49.11
2022-09-26T23:18:59.340Z,49.20
2022-09-26T23:21:27.470Z,49.31
2022-09-26T23:23:56.697Z,49.23
2022-09-26T23:26:24.663Z,49.05
2022-09-26T23:28:53.670Z,49.16
2022-09-26T23:31:20.956Z,49.26
2022-09-26T23:33:47.957Z,49.24
2022-09-26T23:36:14.508Z,49.14
2022-09-26T23:38:41.543Z,49.08
2022-09-26T23:41:09.686Z,49.02
2022-09-26T23:43:36.957Z,48.99
2022-09-26T23:46:04.233Z,49.26
2022-09-26T23:48:30.790Z,48.98
2022-09-26T23:50:57.644Z,48.91
2022-09-26T23:53:24.294Z,49.03
2022-09-26T23:55:51.347Z,49.19
2022-09-26T23:58:18.260Z,49.06
